Accueil
METAR-TAF:

METAR-TAF

Aéroports :

Aéroport de Guidonia

Guidonia Montecelio, Italie

latitude: 42-00N, longitude: 012-44E, altitude: 88 m

Observation

Le bulletin a été fait il y a 6 heures et 7 minutes, à 17:55 UTC
Vent 9 kt de sud-ouest
Température 27°C
Humidité 42%
Pression 1015 hPa
Visibilité 10 km ou plus
pas de nuages en-dessous de 1500 mètres et pas de cumulonimbus.

METAR: LIRG 031755Z 23009KT CAVOK 27/13 Q1015 RMK SKC MON NE LIB NC VIS MIN 9999

Heure: 02:02 (00:02 UTC)

Prévision

Le bulletin a été fait il y a 10 heures et 2 minutes, à 14:00 UTC
Prévision valable du 03 à 15 UTC au 03 à 24 UTC
Vent 8 kt de ouest/sud-ouest
Visibilité 10 km ou plus
pas de nuages en-dessous de 1500 mètres et pas de cumulonimbus.

TAF: LIRG 031400Z 0315/0324 25008KT CAVOK

Observations et prévisions météorologiques de plus de 4000 aéroports (messages METAR et TAF).

Les stations disponibles sont représentées par des disques jaunes et rouges sur la carte.

Passer la souris dessus pour voir le nom de la station.

Cliquer dessus pour voir les observations et prévisions météorologiques.

Pour changer de carte: cliquez sur les boutons verts avec une croix noire pour zoomer, sur le bouton vert avec un tiret pour effectuer un zoom arrière, ou sur les flèches vertes pour les cartes adjacentes.


METAR-TAF: